sensor_id;sensor_type;location;lat;lon;timestamp;P1;durP1;ratioP1;P2;durP2;ratioP2
24279;SDS011;12395;42.808;23.408;2023-03-01T00:01:54;1.48;;;0.80;;
24279;SDS011;12395;42.808;23.408;2023-03-01T00:04:19;1.10;;;0.70;;
24279;SDS011;12395;42.808;23.408;2023-03-01T00:06:45;2.15;;;0.68;;
24279;SDS011;12395;42.808;23.408;2023-03-01T00:09:11;1.67;;;0.90;;
24279;SDS011;12395;42.808;23.408;2023-03-01T00:11:38;1.57;;;0.90;;
24279;SDS011;12395;42.808;23.408;2023-03-01T00:14:03;1.50;;;0.77;;
24279;SDS011;12395;42.808;23.408;2023-03-01T00:16:33;1.73;;;0.85;;
24279;SDS011;12395;42.808;23.408;2023-03-01T00:19:00;1.35;;;0.88;;
24279;SDS011;12395;42.808;23.408;2023-03-01T00:21:27;0.90;;;0.63;;
24279;SDS011;12395;42.808;23.408;2023-03-01T00:23:52;1.02;;;0.70;;
24279;SDS011;12395;42.808;23.408;2023-03-01T00:26:19;1.75;;;0.95;;
24279;SDS011;12395;42.808;23.408;2023-03-01T00:31:16;1.20;;;0.80;;
24279;SDS011;12395;42.808;23.408;2023-03-01T00:33:45;1.40;;;0.70;;
24279;SDS011;12395;42.808;23.408;2023-03-01T00:36:11;0.98;;;0.60;;
24279;SDS011;12395;42.808;23.408;2023-03-01T00:38:39;1.40;;;0.90;;
24279;SDS011;12395;42.808;23.408;2023-03-01T00:41:07;1.73;;;0.80;;
24279;SDS011;12395;42.808;23.408;2023-03-01T00:43:34;1.48;;;0.80;;
24279;SDS011;12395;42.808;23.408;2023-03-01T00:46:05;2.30;;;0.68;;
24279;SDS011;12395;42.808;23.408;2023-03-01T00:48:35;0.80;;;0.60;;
24279;SDS011;12395;42.808;23.408;2023-03-01T00:51:08;1.52;;;0.77;;
24279;SDS011;12395;42.808;23.408;2023-03-01T00:53:35;0.90;;;0.60;;
24279;SDS011;12395;42.808;23.408;2023-03-01T00:56:01;1.48;;;0.88;;
24279;SDS011;12395;42.808;23.408;2023-03-01T00:58:28;0.80;;;0.60;;
24279;SDS011;12395;42.808;23.408;2023-03-01T01:00:53;1.05;;;0.75;;
24279;SDS011;12395;42.808;23.408;2023-03-01T01:03:19;1.02;;;0.70;;
24279;SDS011;12395;42.808;23.408;2023-03-01T01:05:44;0.80;;;0.50;;
24279;SDS011;12395;42.808;23.408;2023-03-01T01:08:10;1.67;;;0.80;;
24279;SDS011;12395;42.808;23.408;2023-03-01T01:10:35;0.98;;;0.60;;
24279;SDS011;12395;42.808;23.408;2023-03-01T01:13:01;0.90;;;0.60;;
24279;SDS011;12395;42.808;23.408;2023-03-01T01:15:26;0.95;;;0.68;;
24279;SDS011;12395;42.808;23.408;2023-03-01T01:17:52;1.45;;;0.70;;
24279;SDS011;12395;42.808;23.408;2023-03-01T01:20:17;0.60;;;0.43;;
24279;SDS011;12395;42.808;23.408;2023-03-01T01:22:43;0.85;;;0.52;;
24279;SDS011;12395;42.808;23.408;2023-03-01T01:25:08;1.00;;;0.60;;
24279;SDS011;12395;42.808;23.408;2023-03-01T01:27:34;0.98;;;0.55;;
24279;SDS011;12395;42.808;23.408;2023-03-01T01:29:59;1.20;;;0.70;;
24279;SDS011;12395;42.808;23.408;2023-03-01T01:32:25;0.95;;;0.60;;
24279;SDS011;12395;42.808;23.408;2023-03-01T01:34:50;0.73;;;0.50;;
24279;SDS011;12395;42.808;23.408;2023-03-01T01:37:15;0.98;;;0.63;;
24279;SDS011;12395;42.808;23.408;2023-03-01T01:39:41;1.35;;;0.60;;
24279;SDS011;12395;42.808;23.408;2023-03-01T01:42:09;1.70;;;0.93;;
24279;SDS011;12395;42.808;23.408;2023-03-01T01:44:42;1.17;;;0.70;;
24279;SDS011;12395;42.808;23.408;2023-03-01T01:47:17;1.02;;;0.65;;
24279;SDS011;12395;42.808;23.408;2023-03-01T01:49:55;1.25;;;0.63;;
24279;SDS011;12395;42.808;23.408;2023-03-01T01:52:42;0.80;;;0.55;;
24279;SDS011;12395;42.808;23.408;2023-03-01T01:57:48;1.00;;;0.65;;
24279;SDS011;12395;42.808;23.408;2023-03-01T02:00:19;1.65;;;0.68;;
24279;SDS011;12395;42.808;23.408;2023-03-01T02:02:47;0.60;;;0.50;;
24279;SDS011;12395;42.808;23.408;2023-03-01T02:05:28;0.77;;;0.50;;
24279;SDS011;12395;42.808;23.408;2023-03-01T02:08:02;1.08;;;0.68;;
24279;SDS011;12395;42.808;23.408;2023-03-01T02:10:28;0.73;;;0.52;;
24279;SDS011;12395;42.808;23.408;2023-03-01T02:12:58;0.75;;;0.50;;
24279;SDS011;12395;42.808;23.408;2023-03-01T02:15:24;0.75;;;0.50;;
24279;SDS011;12395;42.808;23.408;2023-03-01T02:17:51;1.02;;;0.47;;
24279;SDS011;12395;42.808;23.408;2023-03-01T02:23:02;0.82;;;0.32;;
24279;SDS011;12395;42.808;23.408;2023-03-01T02:28:25;0.35;;;0.28;;
24279;SDS011;12395;42.808;23.408;2023-03-01T02:30:51;0.45;;;0.40;;
24279;SDS011;12395;42.808;23.408;2023-03-01T02:33:37;0.60;;;0.32;;
24279;SDS011;12395;42.808;23.408;2023-03-01T02:36:04;0.75;;;0.40;;
24279;SDS011;12395;42.808;23.408;2023-03-01T02:38:35;0.60;;;0.40;;
24279;SDS011;12395;42.808;23.408;2023-03-01T02:41:00;0.33;;;0.23;;
24279;SDS011;12395;42.808;23.408;2023-03-01T02:43:29;0.40;;;0.30;;
24279;SDS011;12395;42.808;23.408;2023-03-01T02:46:02;0.30;;;0.30;;
24279;SDS011;12395;42.808;23.408;2023-03-01T02:48:52;0.28;;;0.20;;
24279;SDS011;12395;42.808;23.408;2023-03-01T02:56:37;1.00;;;0.28;;
24279;SDS011;12395;42.808;23.408;2023-03-01T02:59:02;0.40;;;0.30;;
24279;SDS011;12395;42.808;23.408;2023-03-01T03:01:28;0.30;;;0.20;;
24279;SDS011;12395;42.808;23.408;2023-03-01T03:04:08;0.40;;;0.20;;
24279;SDS011;12395;42.808;23.408;2023-03-01T03:06:36;0.17;;;0.17;;
24279;SDS011;12395;42.808;23.408;2023-03-01T03:09:02;0.45;;;0.20;;
24279;SDS011;12395;42.808;23.408;2023-03-01T03:11:28;0.30;;;0.20;;
24279;SDS011;12395;42.808;23.408;2023-03-01T03:13:55;0.45;;;0.20;;
24279;SDS011;12395;42.808;23.408;2023-03-01T03:16:21;0.30;;;0.20;;
24279;SDS011;12395;42.808;23.408;2023-03-01T03:18:47;0.75;;;0.40;;
24279;SDS011;12395;42.808;23.408;2023-03-01T03:21:13;0.22;;;0.20;;
24279;SDS011;12395;42.808;23.408;2023-03-01T03:23:39;0.20;;;0.10;;
24279;SDS011;12395;42.808;23.408;2023-03-01T03:26:05;0.50;;;0.40;;
24279;SDS011;12395;42.808;23.408;2023-03-01T03:28:31;0.20;;;0.10;;
24279;SDS011;12395;42.808;23.408;2023-03-01T03:30:57;1.30;;;0.20;;
24279;SDS011;12395;42.808;23.408;2023-03-01T03:33:23;0.23;;;0.20;;
24279;SDS011;12395;42.808;23.408;2023-03-01T03:35:49;0.40;;;0.22;;
24279;SDS011;12395;42.808;23.408;2023-03-01T03:38:15;0.20;;;0.20;;
24279;SDS011;12395;42.808;23.408;2023-03-01T03:40:45;0.52;;;0.20;;
24279;SDS011;12395;42.808;23.408;2023-03-01T03:43:13;0.43;;;0.20;;
24279;SDS011;12395;42.808;23.408;2023-03-01T03:45:44;0.20;;;0.20;;
24279;SDS011;12395;42.808;23.408;2023-03-01T03:48:10;0.68;;;0.17;;
24279;SDS011;12395;42.808;23.408;2023-03-01T03:50:36;0.10;;;0.10;;
24279;SDS011;12395;42.808;23.408;2023-03-01T03:53:04;0.13;;;0.13;;
24279;SDS011;12395;42.808;23.408;2023-03-01T03:55:37;0.30;;;0.20;;
24279;SDS011;12395;42.808;23.408;2023-03-01T03:58:04;1.02;;;0.30;;
24279;SDS011;12395;42.808;23.408;2023-03-01T04:00:35;0.20;;;0.20;;
24279;SDS011;12395;42.808;23.408;2023-03-01T04:03:02;0.20;;;0.10;;
24279;SDS011;12395;42.808;23.408;2023-03-01T04:05:27;0.70;;;0.40;;
24279;SDS011;12395;42.808;23.408;2023-03-01T04:07:53;1.60;;;0.33;;
24279;SDS011;12395;42.808;23.408;2023-03-01T04:10:26;0.52;;;0.30;;
24279;SDS011;12395;42.808;23.408;2023-03-01T04:12:55;0.52;;;0.25;;
24279;SDS011;12395;42.808;23.408;2023-03-01T04:15:22;0.88;;;0.30;;
24279;SDS011;12395;42.808;23.408;2023-03-01T04:17:49;0.28;;;0.20;;
24279;SDS011;12395;42.808;23.408;2023-03-01T04:20:17;1.25;;;0.30;;
24279;SDS011;12395;42.808;23.408;2023-03-01T04:22:49;0.33;;;0.27;;
24279;SDS011;12395;42.808;23.408;2023-03-01T04:25:22;0.20;;;0.10;;
24279;SDS011;12395;42.808;23.408;2023-03-01T04:27:48;0.60;;;0.30;;
24279;SDS011;12395;42.808;23.408;2023-03-01T04:30:13;0.20;;;0.20;;
24279;SDS011;12395;42.808;23.408;2023-03-01T04:32:39;0.57;;;0.23;;
24279;SDS011;12395;42.808;23.408;2023-03-01T04:35:04;0.23;;;0.20;;
24279;SDS011;12395;42.808;23.408;2023-03-01T04:37:30;0.57;;;0.37;;
24279;SDS011;12395;42.808;23.408;2023-03-01T04:39:56;0.20;;;0.13;;
24279;SDS011;12395;42.808;23.408;2023-03-01T04:42:21;0.53;;;0.30;;
24279;SDS011;12395;42.808;23.408;2023-03-01T04:44:46;0.80;;;0.30;;
24279;SDS011;12395;42.808;23.408;2023-03-01T04:47:12;0.23;;;0.17;;
24279;SDS011;12395;42.808;23.408;2023-03-01T04:49:37;0.20;;;0.20;;
24279;SDS011;12395;42.808;23.408;2023-03-01T04:52:04;0.20;;;0.20;;
24279;SDS011;12395;42.808;23.408;2023-03-01T04:54:31;0.60;;;0.20;;
24279;SDS011;12395;42.808;23.408;2023-03-01T04:56:58;0.30;;;0.20;;
24279;SDS011;12395;42.808;23.408;2023-03-01T04:59:27;0.60;;;0.20;;
24279;SDS011;12395;42.808;23.408;2023-03-01T05:01:54;0.10;;;0.10;;
24279;SDS011;12395;42.808;23.408;2023-03-01T05:04:23;0.87;;;0.20;;
24279;SDS011;12395;42.808;23.408;2023-03-01T05:06:49;0.20;;;0.10;;
24279;SDS011;12395;42.808;23.408;2023-03-01T05:09:15;0.37;;;0.10;;
24279;SDS011;12395;42.808;23.408;2023-03-01T05:11:40;0.20;;;0.10;;
24279;SDS011;12395;42.808;23.408;2023-03-01T05:14:07;0.10;;;0.10;;
24279;SDS011;12395;42.808;23.408;2023-03-01T05:16:33;0.20;;;0.10;;
24279;SDS011;12395;42.808;23.408;2023-03-01T05:19:01;0.22;;;0.20;;
24279;SDS011;12395;42.808;23.408;2023-03-01T05:21:36;0.10;;;0.10;;
24279;SDS011;12395;42.808;23.408;2023-03-01T05:24:22;0.40;;;0.20;;
24279;SDS011;12395;42.808;23.408;2023-03-01T05:26:48;0.10;;;0.10;;
24279;SDS011;12395;42.808;23.408;2023-03-01T05:29:13;0.83;;;0.10;;
24279;SDS011;12395;42.808;23.408;2023-03-01T05:31:39;0.73;;;0.30;;
24279;SDS011;12395;42.808;23.408;2023-03-01T05:34:04;0.30;;;0.20;;
24279;SDS011;12395;42.808;23.408;2023-03-01T05:36:31;0.90;;;0.60;;
24279;SDS011;12395;42.808;23.408;2023-03-01T05:38:56;0.40;;;0.20;;
24279;SDS011;12395;42.808;23.408;2023-03-01T05:41:22;0.20;;;0.20;;
24279;SDS011;12395;42.808;23.408;2023-03-01T05:43:47;0.95;;;0.20;;
24279;SDS011;12395;42.808;23.408;2023-03-01T05:46:13;0.20;;;0.10;;
24279;SDS011;12395;42.808;23.408;2023-03-01T05:48:40;0.45;;;0.20;;
24279;SDS011;12395;42.808;23.408;2023-03-01T05:51:05;0.63;;;0.10;;
24279;SDS011;12395;42.808;23.408;2023-03-01T05:53:31;0.10;;;0.10;;
24279;SDS011;12395;42.808;23.408;2023-03-01T05:55:56;0.10;;;0.00;;
24279;SDS011;12395;42.808;23.408;2023-03-01T05:58:23;0.13;;;0.10;;
24279;SDS011;12395;42.808;23.408;2023-03-01T06:00:49;0.13;;;0.13;;
24279;SDS011;12395;42.808;23.408;2023-03-01T06:03:15;0.28;;;0.10;;
24279;SDS011;12395;42.808;23.408;2023-03-01T06:05:42;0.20;;;0.10;;
24279;SDS011;12395;42.808;23.408;2023-03-01T06:08:08;0.17;;;0.10;;
24279;SDS011;12395;42.808;23.408;2023-03-01T06:10:35;0.10;;;0.10;;
24279;SDS011;12395;42.808;23.408;2023-03-01T06:13:00;0.30;;;0.20;;
24279;SDS011;12395;42.808;23.408;2023-03-01T06:15:26;0.10;;;0.10;;
24279;SDS011;12395;42.808;23.408;2023-03-01T06:17:53;0.10;;;0.10;;
24279;SDS011;12395;42.808;23.408;2023-03-01T06:20:22;0.60;;;0.10;;
24279;SDS011;12395;42.808;23.408;2023-03-01T06:22:49;0.10;;;0.10;;
24279;SDS011;12395;42.808;23.408;2023-03-01T06:25:15;0.10;;;0.10;;
24279;SDS011;12395;42.808;23.408;2023-03-01T06:27:43;1.20;;;0.10;;
24279;SDS011;12395;42.808;23.408;2023-03-01T06:30:09;0.10;;;0.10;;
24279;SDS011;12395;42.808;23.408;2023-03-01T06:32:37;0.55;;;0.03;;
24279;SDS011;12395;42.808;23.408;2023-03-01T06:35:06;0.22;;;0.10;;
24279;SDS011;12395;42.808;23.408;2023-03-01T06:37:32;0.30;;;0.00;;
24279;SDS011;12395;42.808;23.408;2023-03-01T06:39:58;0.10;;;0.00;;
24279;SDS011;12395;42.808;23.408;2023-03-01T06:42:24;0.50;;;0.10;;
24279;SDS011;12395;42.808;23.408;2023-03-01T06:44:49;0.13;;;0.13;;
24279;SDS011;12395;42.808;23.408;2023-03-01T06:47:14;0.10;;;0.10;;
24279;SDS011;12395;42.808;23.408;2023-03-01T06:49:40;0.32;;;0.10;;
24279;SDS011;12395;42.808;23.408;2023-03-01T06:52:06;0.10;;;0.10;;
24279;SDS011;12395;42.808;23.408;2023-03-01T06:54:31;0.20;;;0.10;;
24279;SDS011;12395;42.808;23.408;2023-03-01T06:56:57;0.30;;;0.30;;
24279;SDS011;12395;42.808;23.408;2023-03-01T06:59:22;1.27;;;0.40;;
24279;SDS011;12395;42.808;23.408;2023-03-01T07:01:47;0.10;;;0.10;;
24279;SDS011;12395;42.808;23.408;2023-03-01T07:04:13;0.52;;;0.30;;
24279;SDS011;12395;42.808;23.408;2023-03-01T07:06:38;0.47;;;0.20;;
24279;SDS011;12395;42.808;23.408;2023-03-01T07:09:04;0.40;;;0.20;;
24279;SDS011;12395;42.808;23.408;2023-03-01T07:11:29;0.40;;;0.17;;
24279;SDS011;12395;42.808;23.408;2023-03-01T07:13:55;0.63;;;0.10;;
24279;SDS011;12395;42.808;23.408;2023-03-01T07:16:21;0.30;;;0.10;;
24279;SDS011;12395;42.808;23.408;2023-03-01T07:18:46;1.10;;;0.30;;
24279;SDS011;12395;42.808;23.408;2023-03-01T07:21:12;0.63;;;0.10;;
24279;SDS011;12395;42.808;23.408;2023-03-01T07:23:39;0.30;;;0.20;;
24279;SDS011;12395;42.808;23.408;2023-03-01T07:26:04;0.65;;;0.25;;
24279;SDS011;12395;42.808;23.408;2023-03-01T07:28:30;0.98;;;0.20;;
24279;SDS011;12395;42.808;23.408;2023-03-01T07:31:00;0.35;;;0.20;;
24279;SDS011;12395;42.808;23.408;2023-03-01T07:33:26;0.30;;;0.17;;
24279;SDS011;12395;42.808;23.408;2023-03-01T07:35:58;0.30;;;0.20;;
24279;SDS011;12395;42.808;23.408;2023-03-01T07:38:26;1.25;;;0.20;;
24279;SDS011;12395;42.808;23.408;2023-03-01T07:40:52;0.23;;;0.10;;
24279;SDS011;12395;42.808;23.408;2023-03-01T07:43:18;0.55;;;0.30;;
24279;SDS011;12395;42.808;23.408;2023-03-01T07:45:44;0.52;;;0.20;;
24279;SDS011;12395;42.808;23.408;2023-03-01T07:48:09;2.83;;;0.30;;
24279;SDS011;12395;42.808;23.408;2023-03-01T07:50:35;0.50;;;0.20;;
24279;SDS011;12395;42.808;23.408;2023-03-01T07:53:00;0.60;;;0.28;;
24279;SDS011;12395;42.808;23.408;2023-03-01T07:55:25;0.85;;;0.40;;
24279;SDS011;12395;42.808;23.408;2023-03-01T07:57:51;0.80;;;0.40;;
24279;SDS011;12395;42.808;23.408;2023-03-01T08:00:16;2.05;;;0.47;;
24279;SDS011;12395;42.808;23.408;2023-03-01T08:02:42;0.50;;;0.30;;
24279;SDS011;12395;42.808;23.408;2023-03-01T08:05:08;1.35;;;0.30;;
24279;SDS011;12395;42.808;23.408;2023-03-01T08:07:35;0.90;;;0.30;;
24279;SDS011;12395;42.808;23.408;2023-03-01T08:10:00;0.68;;;0.40;;
24279;SDS011;12395;42.808;23.408;2023-03-01T08:12:25;0.90;;;0.45;;
24279;SDS011;12395;42.808;23.408;2023-03-01T08:14:53;0.52;;;0.30;;
24279;SDS011;12395;42.808;23.408;2023-03-01T08:17:18;0.70;;;0.40;;
24279;SDS011;12395;42.808;23.408;2023-03-01T08:19:44;1.77;;;0.30;;
24279;SDS011;12395;42.808;23.408;2023-03-01T08:22:09;1.05;;;0.43;;
24279;SDS011;12395;42.808;23.408;2023-03-01T08:24:35;0.55;;;0.20;;
24279;SDS011;12395;42.808;23.408;2023-03-01T08:27:00;1.33;;;0.40;;
24279;SDS011;12395;42.808;23.408;2023-03-01T08:29:27;1.80;;;0.40;;
24279;SDS011;12395;42.808;23.408;2023-03-01T08:31:55;0.82;;;0.30;;
24279;SDS011;12395;42.808;23.408;2023-03-01T08:34:21;0.75;;;0.45;;
24279;SDS011;12395;42.808;23.408;2023-03-01T08:36:48;1.03;;;0.70;;
24279;SDS011;12395;42.808;23.408;2023-03-01T08:39:15;1.75;;;0.90;;
24279;SDS011;12395;42.808;23.408;2023-03-01T08:41:41;2.42;;;0.90;;
24279;SDS011;12395;42.808;23.408;2023-03-01T08:44:07;2.17;;;0.90;;
24279;SDS011;12395;42.808;23.408;2023-03-01T08:46:38;0.70;;;0.60;;
24279;SDS011;12395;42.808;23.408;2023-03-01T08:49:09;1.45;;;0.88;;
24279;SDS011;12395;42.808;23.408;2023-03-01T08:51:37;1.77;;;0.80;;
24279;SDS011;12395;42.808;23.408;2023-03-01T08:54:03;1.25;;;0.90;;
24279;SDS011;12395;42.808;23.408;2023-03-01T08:56:30;2.67;;;1.08;;
24279;SDS011;12395;42.808;23.408;2023-03-01T08:58:56;2.30;;;1.10;;
24279;SDS011;12395;42.808;23.408;2023-03-01T09:01:22;2.45;;;1.10;;
24279;SDS011;12395;42.808;23.408;2023-03-01T09:03:47;3.28;;;1.20;;
24279;SDS011;12395;42.808;23.408;2023-03-01T09:06:13;2.90;;;0.80;;
24279;SDS011;12395;42.808;23.408;2023-03-01T09:08:41;1.88;;;0.77;;
24279;SDS011;12395;42.808;23.408;2023-03-01T09:11:09;2.22;;;0.85;;
24279;SDS011;12395;42.808;23.408;2023-03-01T09:16:02;2.42;;;0.90;;
24279;SDS011;12395;42.808;23.408;2023-03-01T09:18:29;1.27;;;0.85;;
24279;SDS011;12395;42.808;23.408;2023-03-01T09:21:05;2.20;;;0.98;;
24279;SDS011;12395;42.808;23.408;2023-03-01T09:23:37;1.75;;;0.93;;
24279;SDS011;12395;42.808;23.408;2023-03-01T09:26:04;1.75;;;1.10;;
24279;SDS011;12395;42.808;23.408;2023-03-01T09:28:34;1.63;;;0.95;;
24279;SDS011;12395;42.808;23.408;2023-03-01T09:31:00;2.75;;;1.23;;
24279;SDS011;12395;42.808;23.408;2023-03-01T09:33:27;1.50;;;1.10;;
24279;SDS011;12395;42.808;23.408;2023-03-01T09:36:03;2.58;;;1.17;;
24279;SDS011;12395;42.808;23.408;2023-03-01T09:38:32;0.98;;;0.80;;
24279;SDS011;12395;42.808;23.408;2023-03-01T09:40:58;1.88;;;1.00;;
24279;SDS011;12395;42.808;23.408;2023-03-01T09:46:11;2.15;;;1.20;;
24279;SDS011;12395;42.808;23.408;2023-03-01T09:48:43;1.90;;;0.98;;
24279;SDS011;12395;42.808;23.408;2023-03-01T09:51:15;2.58;;;1.20;;
24279;SDS011;12395;42.808;23.408;2023-03-01T09:53:44;1.80;;;1.30;;
24279;SDS011;12395;42.808;23.408;2023-03-01T09:56:20;2.67;;;1.05;;
24279;SDS011;12395;42.808;23.408;2023-03-01T09:58:49;3.58;;;1.20;;
24279;SDS011;12395;42.808;23.408;2023-03-01T10:01:36;1.63;;;1.23;;
24279;SDS011;12395;42.808;23.408;2023-03-01T10:04:28;2.10;;;1.10;;
24279;SDS011;12395;42.808;23.408;2023-03-01T10:07:13;1.85;;;1.20;;
24279;SDS011;12395;42.808;23.408;2023-03-01T10:09:49;2.55;;;1.40;;
24279;SDS011;12395;42.808;23.408;2023-03-01T10:12:19;1.83;;;1.02;;
24279;SDS011;12395;42.808;23.408;2023-03-01T10:20:25;2.40;;;1.10;;
24279;SDS011;12395;42.808;23.408;2023-03-01T10:22:54;2.08;;;1.10;;
24279;SDS011;12395;42.808;23.408;2023-03-01T10:25:40;2.83;;;1.30;;
24279;SDS011;12395;42.808;23.408;2023-03-01T10:30:56;2.15;;;1.40;;
24279;SDS011;12395;42.808;23.408;2023-03-01T10:33:25;1.65;;;1.08;;
24279;SDS011;12395;42.808;23.408;2023-03-01T10:35:54;1.77;;;1.25;;
24279;SDS011;12395;42.808;23.408;2023-03-01T10:38:20;3.60;;;1.38;;
24279;SDS011;12395;42.808;23.408;2023-03-01T10:40:50;1.80;;;0.70;;
24279;SDS011;12395;42.808;23.408;2023-03-01T10:43:19;0.80;;;0.60;;
24279;SDS011;12395;42.808;23.408;2023-03-01T10:45:45;1.55;;;0.88;;
24279;SDS011;12395;42.808;23.408;2023-03-01T10:50:38;0.90;;;0.57;;
24279;SDS011;12395;42.808;23.408;2023-03-01T10:53:16;0.98;;;0.65;;
24279;SDS011;12395;42.808;23.408;2023-03-01T10:55:47;2.15;;;1.20;;
24279;SDS011;12395;42.808;23.408;2023-03-01T10:58:21;0.98;;;0.70;;
24279;SDS011;12395;42.808;23.408;2023-03-01T11:03:21;0.70;;;0.70;;
24279;SDS011;12395;42.808;23.408;2023-03-01T11:16:23;1.27;;;0.60;;
24279;SDS011;12395;42.808;23.408;2023-03-01T11:24:15;1.02;;;0.47;;
24279;SDS011;12395;42.808;23.408;2023-03-01T11:26:44;1.63;;;0.80;;
24279;SDS011;12395;42.808;23.408;2023-03-01T11:29:57;1.55;;;0.60;;
24279;SDS011;12395;42.808;23.408;2023-03-01T11:32:07;1.45;;;0.68;;
24279;SDS011;12395;42.808;23.408;2023-03-01T11:37:10;1.15;;;0.70;;
24279;SDS011;12395;42.808;23.408;2023-03-01T11:39:50;1.05;;;0.60;;
24279;SDS011;12395;42.808;23.408;2023-03-01T11:42:42;1.05;;;0.80;;
24279;SDS011;12395;42.808;23.408;2023-03-01T11:45:31;1.25;;;0.73;;
24279;SDS011;12395;42.808;23.408;2023-03-01T11:51:01;1.75;;;0.98;;
24279;SDS011;12395;42.808;23.408;2023-03-01T11:56:38;1.58;;;0.88;;
24279;SDS011;12395;42.808;23.408;2023-03-01T12:12:57;2.10;;;1.00;;
24279;SDS011;12395;42.808;23.408;2023-03-01T12:26:49;1.45;;;0.90;;
24279;SDS011;12395;42.808;23.408;2023-03-01T12:40:17;2.40;;;1.20;;
24279;SDS011;12395;42.808;23.408;2023-03-01T12:50:52;2.80;;;1.23;;
24279;SDS011;12395;42.808;23.408;2023-03-01T12:53:26;2.55;;;1.27;;
24279;SDS011;12395;42.808;23.408;2023-03-01T12:55:57;3.83;;;1.27;;
24279;SDS011;12395;42.808;23.408;2023-03-01T12:58:32;2.92;;;1.15;;
24279;SDS011;12395;42.808;23.408;2023-03-01T13:01:05;1.95;;;1.20;;
24279;SDS011;12395;42.808;23.408;2023-03-01T13:06:43;2.22;;;1.30;;
24279;SDS011;12395;42.808;23.408;2023-03-01T13:15:24;3.63;;;1.40;;
24279;SDS011;12395;42.808;23.408;2023-03-01T13:17:50;1.98;;;1.23;;
24279;SDS011;12395;42.808;23.408;2023-03-01T13:20:21;3.42;;;1.55;;
24279;SDS011;12395;42.808;23.408;2023-03-01T13:23:03;3.22;;;1.60;;
24279;SDS011;12395;42.808;23.408;2023-03-01T13:31:09;2.97;;;1.52;;
24279;SDS011;12395;42.808;23.408;2023-03-01T13:33:55;5.13;;;1.65;;
24279;SDS011;12395;42.808;23.408;2023-03-01T13:44:50;2.67;;;1.17;;
24279;SDS011;12395;42.808;23.408;2023-03-01T13:47:04;2.83;;;1.33;;
24279;SDS011;12395;42.808;23.408;2023-03-01T13:55:51;2.83;;;1.52;;
24279;SDS011;12395;42.808;23.408;2023-03-01T14:03:32;3.47;;;1.55;;
24279;SDS011;12395;42.808;23.408;2023-03-01T14:08:34;3.38;;;1.70;;
24279;SDS011;12395;42.808;23.408;2023-03-01T14:19:29;4.65;;;2.20;;
24279;SDS011;12395;42.808;23.408;2023-03-01T14:22:00;2.42;;;1.48;;
24279;SDS011;12395;42.808;23.408;2023-03-01T14:24:44;3.22;;;1.50;;
24279;SDS011;12395;42.808;23.408;2023-03-01T14:27:14;2.35;;;1.55;;
24279;SDS011;12395;42.808;23.408;2023-03-01T14:29:41;4.32;;;2.00;;
24279;SDS011;12395;42.808;23.408;2023-03-01T14:34:42;3.28;;;2.20;;
24279;SDS011;12395;42.808;23.408;2023-03-01T14:37:10;5.88;;;2.80;;
24279;SDS011;12395;42.808;23.408;2023-03-01T14:39:42;7.18;;;3.83;;
24279;SDS011;12395;42.808;23.408;2023-03-01T14:42:07;4.65;;;2.45;;
24279;SDS011;12395;42.808;23.408;2023-03-01T14:44:33;5.22;;;2.38;;
24279;SDS011;12395;42.808;23.408;2023-03-01T14:47:02;4.25;;;2.22;;
24279;SDS011;12395;42.808;23.408;2023-03-01T14:49:29;4.78;;;2.28;;
24279;SDS011;12395;42.808;23.408;2023-03-01T14:51:58;4.07;;;2.17;;
24279;SDS011;12395;42.808;23.408;2023-03-01T14:54:29;5.43;;;2.00;;
24279;SDS011;12395;42.808;23.408;2023-03-01T14:57:00;5.80;;;2.53;;
24279;SDS011;12395;42.808;23.408;2023-03-01T14:59:26;5.38;;;2.30;;
24279;SDS011;12395;42.808;23.408;2023-03-01T15:01:53;3.15;;;2.05;;
24279;SDS011;12395;42.808;23.408;2023-03-01T15:04:20;3.08;;;1.65;;
24279;SDS011;12395;42.808;23.408;2023-03-01T15:06:47;2.78;;;1.70;;
24279;SDS011;12395;42.808;23.408;2023-03-01T15:09:16;4.13;;;1.70;;
24279;SDS011;12395;42.808;23.408;2023-03-01T15:11:42;4.57;;;2.10;;
24279;SDS011;12395;42.808;23.408;2023-03-01T15:14:27;4.75;;;1.88;;
24279;SDS011;12395;42.808;23.408;2023-03-01T15:16:54;6.20;;;2.60;;
24279;SDS011;12395;42.808;23.408;2023-03-01T15:19:20;4.20;;;2.08;;
24279;SDS011;12395;42.808;23.408;2023-03-01T15:21:49;4.13;;;1.88;;
24279;SDS011;12395;42.808;23.408;2023-03-01T15:24:17;3.92;;;2.33;;
24279;SDS011;12395;42.808;23.408;2023-03-01T15:26:57;5.47;;;2.28;;
24279;SDS011;12395;42.808;23.408;2023-03-01T15:29:30;4.57;;;2.28;;
24279;SDS011;12395;42.808;23.408;2023-03-01T15:32:05;3.83;;;1.85;;
24279;SDS011;12395;42.808;23.408;2023-03-01T15:34:48;4.10;;;2.10;;
24279;SDS011;12395;42.808;23.408;2023-03-01T15:40:17;4.63;;;2.13;;
24279;SDS011;12395;42.808;23.408;2023-03-01T15:43:05;5.13;;;2.00;;
24279;SDS011;12395;42.808;23.408;2023-03-01T15:45:32;4.65;;;2.10;;
24279;SDS011;12395;42.808;23.408;2023-03-01T15:48:24;5.07;;;2.45;;
24279;SDS011;12395;42.808;23.408;2023-03-01T15:50:55;4.20;;;2.20;;
24279;SDS011;12395;42.808;23.408;2023-03-01T15:53:22;5.28;;;2.38;;
24279;SDS011;12395;42.808;23.408;2023-03-01T15:55:48;4.95;;;1.80;;
24279;SDS011;12395;42.808;23.408;2023-03-01T15:58:16;4.75;;;1.98;;
24279;SDS011;12395;42.808;23.408;2023-03-01T16:00:45;4.00;;;2.03;;
24279;SDS011;12395;42.808;23.408;2023-03-01T16:03:13;3.90;;;1.92;;
24279;SDS011;12395;42.808;23.408;2023-03-01T16:05:39;4.00;;;1.80;;
24279;SDS011;12395;42.808;23.408;2023-03-01T16:08:05;7.40;;;2.53;;
24279;SDS011;12395;42.808;23.408;2023-03-01T16:10:31;5.03;;;2.20;;
24279;SDS011;12395;42.808;23.408;2023-03-01T16:12:58;4.85;;;2.33;;
24279;SDS011;12395;42.808;23.408;2023-03-01T16:15:28;4.88;;;2.53;;
24279;SDS011;12395;42.808;23.408;2023-03-01T16:17:56;6.72;;;2.95;;
24279;SDS011;12395;42.808;23.408;2023-03-01T16:20:23;6.35;;;2.80;;
24279;SDS011;12395;42.808;23.408;2023-03-01T16:22:49;3.63;;;1.73;;
24279;SDS011;12395;42.808;23.408;2023-03-01T16:25:15;3.15;;;1.73;;
24279;SDS011;12395;42.808;23.408;2023-03-01T16:30:08;4.15;;;2.03;;
24279;SDS011;12395;42.808;23.408;2023-03-01T16:32:38;6.10;;;2.45;;
24279;SDS011;12395;42.808;23.408;2023-03-01T16:35:05;3.92;;;2.20;;
24279;SDS011;12395;42.808;23.408;2023-03-01T16:37:31;4.82;;;2.40;;
24279;SDS011;12395;42.808;23.408;2023-03-01T16:39:58;4.80;;;2.38;;
24279;SDS011;12395;42.808;23.408;2023-03-01T16:42:23;5.47;;;2.70;;
24279;SDS011;12395;42.808;23.408;2023-03-01T16:44:49;5.70;;;2.42;;
24279;SDS011;12395;42.808;23.408;2023-03-01T16:47:19;4.35;;;2.20;;
24279;SDS011;12395;42.808;23.408;2023-03-01T16:49:45;4.57;;;2.10;;
24279;SDS011;12395;42.808;23.408;2023-03-01T16:52:10;4.22;;;2.00;;
24279;SDS011;12395;42.808;23.408;2023-03-01T16:54:36;3.88;;;1.70;;
24279;SDS011;12395;42.808;23.408;2023-03-01T16:57:01;4.47;;;2.03;;
24279;SDS011;12395;42.808;23.408;2023-03-01T16:59:27;3.63;;;2.08;;
24279;SDS011;12395;42.808;23.408;2023-03-01T17:01:52;3.83;;;2.20;;
24279;SDS011;12395;42.808;23.408;2023-03-01T17:04:17;8.40;;;2.45;;
24279;SDS011;12395;42.808;23.408;2023-03-01T17:06:43;5.68;;;1.90;;
24279;SDS011;12395;42.808;23.408;2023-03-01T17:09:08;4.97;;;1.90;;
24279;SDS011;12395;42.808;23.408;2023-03-01T17:11:35;5.65;;;1.90;;
24279;SDS011;12395;42.808;23.408;2023-03-01T17:14:00;4.10;;;1.75;;
24279;SDS011;12395;42.808;23.408;2023-03-01T17:16:26;2.20;;;1.52;;
24279;SDS011;12395;42.808;23.408;2023-03-01T17:18:51;3.42;;;1.70;;